sensor_id;sensor_type;location;lat;lon;timestamp;temperature;humidity
4566;DHT22;2295;51.050;14.608;2023-09-19T00:00:44;15.20;99.90
4566;DHT22;2295;51.050;14.608;2023-09-19T00:03:14;15.20;99.90
4566;DHT22;2295;51.050;14.608;2023-09-19T00:05:43;15.10;99.90
4566;DHT22;2295;51.050;14.608;2023-09-19T00:08:13;15.10;99.90
4566;DHT22;2295;51.050;14.608;2023-09-19T00:10:43;15.10;99.90
4566;DHT22;2295;51.050;14.608;2023-09-19T00:13:12;15.00;99.90
4566;DHT22;2295;51.050;14.608;2023-09-19T00:15:44;15.00;99.90
4566;DHT22;2295;51.050;14.608;2023-09-19T00:18:17;14.90;99.90
4566;DHT22;2295;51.050;14.608;2023-09-19T00:20:46;14.90;99.90
4566;DHT22;2295;51.050;14.608;2023-09-19T00:23:17;14.80;99.90
4566;DHT22;2295;51.050;14.608;2023-09-19T00:25:46;14.90;99.90
4566;DHT22;2295;51.050;14.608;2023-09-19T00:28:17;14.90;99.90
4566;DHT22;2295;51.050;14.608;2023-09-19T00:30:45;14.90;99.90
4566;DHT22;2295;51.050;14.608;2023-09-19T00:33:17;15.00;99.90
4566;DHT22;2295;51.050;14.608;2023-09-19T00:35:49;14.90;99.90
4566;DHT22;2295;51.050;14.608;2023-09-19T00:38:19;14.90;99.90
4566;DHT22;2295;51.050;14.608;2023-09-19T00:40:50;14.90;99.90
4566;DHT22;2295;51.050;14.608;2023-09-19T00:43:20;15.00;99.90
4566;DHT22;2295;51.050;14.608;2023-09-19T00:45:52;15.00;99.90
4566;DHT22;2295;51.050;14.608;2023-09-19T00:48:22;14.90;99.90
4566;DHT22;2295;51.050;14.608;2023-09-19T00:50:52;14.90;99.90
4566;DHT22;2295;51.050;14.608;2023-09-19T00:53:23;14.90;99.90
4566;DHT22;2295;51.050;14.608;2023-09-19T00:55:53;15.00;99.90
4566;DHT22;2295;51.050;14.608;2023-09-19T00:58:24;15.00;99.90
4566;DHT22;2295;51.050;14.608;2023-09-19T01:00:53;14.90;99.90
4566;DHT22;2295;51.050;14.608;2023-09-19T01:03:23;14.90;99.90
4566;DHT22;2295;51.050;14.608;2023-09-19T01:05:51;14.90;99.90
4566;DHT22;2295;51.050;14.608;2023-09-19T01:08:19;15.00;99.90
4566;DHT22;2295;51.050;14.608;2023-09-19T01:10:52;15.00;99.90
4566;DHT22;2295;51.050;14.608;2023-09-19T01:13:29;15.00;99.90
4566;DHT22;2295;51.050;14.608;2023-09-19T01:16:03;15.00;99.90
4566;DHT22;2295;51.050;14.608;2023-09-19T01:18:40;15.00;99.90
4566;DHT22;2295;51.050;14.608;2023-09-19T01:21:18;15.00;99.90
4566;DHT22;2295;51.050;14.608;2023-09-19T01:27:17;15.00;99.90
4566;DHT22;2295;51.050;14.608;2023-09-19T01:29:52;14.90;99.90
4566;DHT22;2295;51.050;14.608;2023-09-19T01:32:23;14.90;99.90
4566;DHT22;2295;51.050;14.608;2023-09-19T01:34:54;14.90;99.90
4566;DHT22;2295;51.050;14.608;2023-09-19T01:37:24;14.90;99.90
4566;DHT22;2295;51.050;14.608;2023-09-19T01:39:57;14.90;99.90
4566;DHT22;2295;51.050;14.608;2023-09-19T01:42:39;14.90;99.90
4566;DHT22;2295;51.050;14.608;2023-09-19T01:45:12;14.90;99.90
4566;DHT22;2295;51.050;14.608;2023-09-19T01:47:48;14.90;99.90
4566;DHT22;2295;51.050;14.608;2023-09-19T01:50:29;14.90;99.90
4566;DHT22;2295;51.050;14.608;2023-09-19T01:53:02;15.00;99.90
4566;DHT22;2295;51.050;14.608;2023-09-19T01:55:37;15.00;99.90
4566;DHT22;2295;51.050;14.608;2023-09-19T01:58:18;15.00;99.90
4566;DHT22;2295;51.050;14.608;2023-09-19T02:00:50;15.00;99.90
4566;DHT22;2295;51.050;14.608;2023-09-19T02:03:21;15.00;99.90
4566;DHT22;2295;51.050;14.608;2023-09-19T02:05:50;15.00;99.90
4566;DHT22;2295;51.050;14.608;2023-09-19T02:08:21;15.00;99.90
4566;DHT22;2295;51.050;14.608;2023-09-19T02:10:51;15.00;99.90
4566;DHT22;2295;51.050;14.608;2023-09-19T02:13:21;15.00;99.90
4566;DHT22;2295;51.050;14.608;2023-09-19T02:15:51;14.90;99.90
4566;DHT22;2295;51.050;14.608;2023-09-19T02:18:20;14.90;99.90
4566;DHT22;2295;51.050;14.608;2023-09-19T02:20:49;14.90;99.90
4566;DHT22;2295;51.050;14.608;2023-09-19T02:23:18;14.90;99.90
4566;DHT22;2295;51.050;14.608;2023-09-19T02:25:52;14.80;99.90
4566;DHT22;2295;51.050;14.608;2023-09-19T02:28:21;14.80;99.90
4566;DHT22;2295;51.050;14.608;2023-09-19T02:30:50;14.80;99.90
4566;DHT22;2295;51.050;14.608;2023-09-19T02:33:19;14.80;99.90
4566;DHT22;2295;51.050;14.608;2023-09-19T02:35:48;14.80;99.90
4566;DHT22;2295;51.050;14.608;2023-09-19T02:38:17;14.80;99.90
4566;DHT22;2295;51.050;14.608;2023-09-19T02:40:51;14.80;99.90
4566;DHT22;2295;51.050;14.608;2023-09-19T02:43:20;14.70;99.90
4566;DHT22;2295;51.050;14.608;2023-09-19T02:45:49;14.70;99.90
4566;DHT22;2295;51.050;14.608;2023-09-19T02:48:17;14.70;99.90
4566;DHT22;2295;51.050;14.608;2023-09-19T02:50:50;14.70;99.90
4566;DHT22;2295;51.050;14.608;2023-09-19T02:53:19;14.60;99.90
4566;DHT22;2295;51.050;14.608;2023-09-19T02:55:47;14.60;99.90
4566;DHT22;2295;51.050;14.608;2023-09-19T02:58:16;14.60;99.90
4566;DHT22;2295;51.050;14.608;2023-09-19T03:00:45;14.60;99.90
4566;DHT22;2295;51.050;14.608;2023-09-19T03:03:15;14.60;99.90
4566;DHT22;2295;51.050;14.608;2023-09-19T03:05:44;14.70;99.90
4566;DHT22;2295;51.050;14.608;2023-09-19T03:08:17;14.70;99.90
4566;DHT22;2295;51.050;14.608;2023-09-19T03:10:46;14.70;99.90
4566;DHT22;2295;51.050;14.608;2023-09-19T03:13:15;14.80;99.90
4566;DHT22;2295;51.050;14.608;2023-09-19T03:15:44;14.80;99.90
4566;DHT22;2295;51.050;14.608;2023-09-19T03:18:14;14.80;99.90
4566;DHT22;2295;51.050;14.608;2023-09-19T03:20:42;14.80;99.90
4566;DHT22;2295;51.050;14.608;2023-09-19T03:23:11;14.80;99.90
4566;DHT22;2295;51.050;14.608;2023-09-19T03:25:41;14.80;99.90
4566;DHT22;2295;51.050;14.608;2023-09-19T03:28:10;14.80;99.90
4566;DHT22;2295;51.050;14.608;2023-09-19T03:30:38;14.80;99.90
4566;DHT22;2295;51.050;14.608;2023-09-19T03:33:07;14.80;99.90
4566;DHT22;2295;51.050;14.608;2023-09-19T03:35:39;14.80;99.90
4566;DHT22;2295;51.050;14.608;2023-09-19T03:38:08;14.80;99.90
4566;DHT22;2295;51.050;14.608;2023-09-19T03:40:36;14.80;99.90
4566;DHT22;2295;51.050;14.608;2023-09-19T03:43:06;14.80;99.90
4566;DHT22;2295;51.050;14.608;2023-09-19T03:45:34;14.70;99.90
4566;DHT22;2295;51.050;14.608;2023-09-19T03:48:08;14.70;99.90
4566;DHT22;2295;51.050;14.608;2023-09-19T03:50:37;14.80;99.90
4566;DHT22;2295;51.050;14.608;2023-09-19T03:53:05;14.80;99.90
4566;DHT22;2295;51.050;14.608;2023-09-19T03:55:34;14.80;99.90
4566;DHT22;2295;51.050;14.608;2023-09-19T03:58:03;14.80;99.90
4566;DHT22;2295;51.050;14.608;2023-09-19T04:00:32;14.80;99.90
4566;DHT22;2295;51.050;14.608;2023-09-19T04:03:05;14.80;99.90
4566;DHT22;2295;51.050;14.608;2023-09-19T04:05:34;14.80;99.90
4566;DHT22;2295;51.050;14.608;2023-09-19T04:08:03;14.80;99.90
4566;DHT22;2295;51.050;14.608;2023-09-19T04:10:32;14.80;99.90
4566;DHT22;2295;51.050;14.608;2023-09-19T04:13:00;14.80;99.90
4566;DHT22;2295;51.050;14.608;2023-09-19T04:15:28;14.80;99.90
4566;DHT22;2295;51.050;14.608;2023-09-19T04:17:58;14.70;99.90
4566;DHT22;2295;51.050;14.608;2023-09-19T04:20:26;14.70;99.90
4566;DHT22;2295;51.050;14.608;2023-09-19T04:22:55;14.60;99.90
4566;DHT22;2295;51.050;14.608;2023-09-19T04:25:23;14.50;99.90
4566;DHT22;2295;51.050;14.608;2023-09-19T04:27:53;14.60;99.90
4566;DHT22;2295;51.050;14.608;2023-09-19T04:30:21;14.60;99.90
4566;DHT22;2295;51.050;14.608;2023-09-19T04:32:50;14.60;99.90
4566;DHT22;2295;51.050;14.608;2023-09-19T04:35:20;14.60;99.90
4566;DHT22;2295;51.050;14.608;2023-09-19T04:37:48;14.60;99.90
4566;DHT22;2295;51.050;14.608;2023-09-19T04:40:18;14.60;99.90
4566;DHT22;2295;51.050;14.608;2023-09-19T04:42:53;14.60;99.90
4566;DHT22;2295;51.050;14.608;2023-09-19T04:45:23;14.60;99.90
4566;DHT22;2295;51.050;14.608;2023-09-19T04:47:53;14.60;99.90
4566;DHT22;2295;51.050;14.608;2023-09-19T04:50:23;14.60;99.90
4566;DHT22;2295;51.050;14.608;2023-09-19T04:52:54;14.60;99.90
4566;DHT22;2295;51.050;14.608;2023-09-19T04:55:23;14.60;99.90
4566;DHT22;2295;51.050;14.608;2023-09-19T04:57:51;14.60;99.90
4566;DHT22;2295;51.050;14.608;2023-09-19T05:00:21;14.60;99.90
4566;DHT22;2295;51.050;14.608;2023-09-19T05:02:51;14.60;99.90
4566;DHT22;2295;51.050;14.608;2023-09-19T05:05:20;14.70;99.90
4566;DHT22;2295;51.050;14.608;2023-09-19T05:07:51;14.70;99.90
4566;DHT22;2295;51.050;14.608;2023-09-19T05:10:21;14.70;99.90
4566;DHT22;2295;51.050;14.608;2023-09-19T05:12:53;14.80;99.90
4566;DHT22;2295;51.050;14.608;2023-09-19T05:15:21;14.80;99.90
4566;DHT22;2295;51.050;14.608;2023-09-19T05:17:50;14.80;99.90
4566;DHT22;2295;51.050;14.608;2023-09-19T05:20:23;14.70;99.90
4566;DHT22;2295;51.050;14.608;2023-09-19T05:23:02;14.70;99.90
4566;DHT22;2295;51.050;14.608;2023-09-19T05:25:33;14.80;99.90
4566;DHT22;2295;51.050;14.608;2023-09-19T05:28:04;14.80;99.90
4566;DHT22;2295;51.050;14.608;2023-09-19T05:30:33;14.80;99.90
4566;DHT22;2295;51.050;14.608;2023-09-19T05:33:03;14.90;99.90
4566;DHT22;2295;51.050;14.608;2023-09-19T05:35:32;15.00;99.90
4566;DHT22;2295;51.050;14.608;2023-09-19T05:38:02;15.00;99.90
4566;DHT22;2295;51.050;14.608;2023-09-19T05:40:32;15.00;99.90
4566;DHT22;2295;51.050;14.608;2023-09-19T05:43:02;15.00;99.90
4566;DHT22;2295;51.050;14.608;2023-09-19T05:45:30;15.00;99.90
4566;DHT22;2295;51.050;14.608;2023-09-19T05:48:08;15.10;99.90
4566;DHT22;2295;51.050;14.608;2023-09-19T05:50:37;15.20;99.90
4566;DHT22;2295;51.050;14.608;2023-09-19T05:53:06;15.20;99.90
4566;DHT22;2295;51.050;14.608;2023-09-19T05:55:37;15.30;99.90
4566;DHT22;2295;51.050;14.608;2023-09-19T05:58:06;15.30;99.90
4566;DHT22;2295;51.050;14.608;2023-09-19T06:00:35;15.30;99.90
4566;DHT22;2295;51.050;14.608;2023-09-19T06:03:06;15.40;99.90
4566;DHT22;2295;51.050;14.608;2023-09-19T06:05:34;15.40;99.90
4566;DHT22;2295;51.050;14.608;2023-09-19T06:08:03;15.50;99.90
4566;DHT22;2295;51.050;14.608;2023-09-19T06:10:36;15.50;99.90
4566;DHT22;2295;51.050;14.608;2023-09-19T06:13:05;15.60;99.90
4566;DHT22;2295;51.050;14.608;2023-09-19T06:15:37;15.80;99.90
4566;DHT22;2295;51.050;14.608;2023-09-19T06:18:10;15.80;99.90
4566;DHT22;2295;51.050;14.608;2023-09-19T06:20:42;15.90;99.90
4566;DHT22;2295;51.050;14.608;2023-09-19T06:23:12;16.00;99.90
4566;DHT22;2295;51.050;14.608;2023-09-19T06:25:41;16.10;99.90
4566;DHT22;2295;51.050;14.608;2023-09-19T06:28:11;16.20;99.90
4566;DHT22;2295;51.050;14.608;2023-09-19T06:30:40;16.20;99.90
4566;DHT22;2295;51.050;14.608;2023-09-19T06:33:09;16.30;99.90
4566;DHT22;2295;51.050;14.608;2023-09-19T06:35:39;16.30;99.90
4566;DHT22;2295;51.050;14.608;2023-09-19T06:38:08;16.40;99.90
4566;DHT22;2295;51.050;14.608;2023-09-19T06:40:41;16.40;99.90
4566;DHT22;2295;51.050;14.608;2023-09-19T06:43:11;16.50;99.90
4566;DHT22;2295;51.050;14.608;2023-09-19T06:45:39;16.60;99.90
4566;DHT22;2295;51.050;14.608;2023-09-19T06:48:07;16.70;99.90
4566;DHT22;2295;51.050;14.608;2023-09-19T06:50:37;16.80;99.90
4566;DHT22;2295;51.050;14.608;2023-09-19T06:53:08;16.90;99.90
4566;DHT22;2295;51.050;14.608;2023-09-19T06:55:37;16.90;99.90
4566;DHT22;2295;51.050;14.608;2023-09-19T06:58:06;16.90;99.90
4566;DHT22;2295;51.050;14.608;2023-09-19T07:00:35;17.00;99.90
4566;DHT22;2295;51.050;14.608;2023-09-19T07:03:06;17.10;99.90
4566;DHT22;2295;51.050;14.608;2023-09-19T07:05:39;17.10;99.90
4566;DHT22;2295;51.050;14.608;2023-09-19T07:08:10;17.10;99.90
4566;DHT22;2295;51.050;14.608;2023-09-19T07:10:41;17.10;99.90
4566;DHT22;2295;51.050;14.608;2023-09-19T07:13:17;17.10;99.90
4566;DHT22;2295;51.050;14.608;2023-09-19T07:15:45;17.20;99.90
4566;DHT22;2295;51.050;14.608;2023-09-19T07:18:17;17.30;99.90
4566;DHT22;2295;51.050;14.608;2023-09-19T07:20:47;17.40;99.90
4566;DHT22;2295;51.050;14.608;2023-09-19T07:23:17;17.50;99.90
4566;DHT22;2295;51.050;14.608;2023-09-19T07:25:46;17.70;99.90
4566;DHT22;2295;51.050;14.608;2023-09-19T07:28:17;17.90;99.90
4566;DHT22;2295;51.050;14.608;2023-09-19T07:30:46;18.00;99.90
4566;DHT22;2295;51.050;14.608;2023-09-19T07:33:14;18.10;99.90
4566;DHT22;2295;51.050;14.608;2023-09-19T07:35:45;18.10;99.90
4566;DHT22;2295;51.050;14.608;2023-09-19T07:38:14;18.00;99.90
4566;DHT22;2295;51.050;14.608;2023-09-19T07:40:43;17.90;99.90
4566;DHT22;2295;51.050;14.608;2023-09-19T07:43:12;17.90;99.90
4566;DHT22;2295;51.050;14.608;2023-09-19T07:45:41;17.90;99.90
4566;DHT22;2295;51.050;14.608;2023-09-19T07:48:10;17.90;99.90
4566;DHT22;2295;51.050;14.608;2023-09-19T07:50:41;18.20;99.90
4566;DHT22;2295;51.050;14.608;2023-09-19T07:53:11;18.60;99.90
4566;DHT22;2295;51.050;14.608;2023-09-19T07:55:40;19.00;99.90
4566;DHT22;2295;51.050;14.608;2023-09-19T07:58:09;19.40;99.90
4566;DHT22;2295;51.050;14.608;2023-09-19T08:00:37;19.50;99.90
4566;DHT22;2295;51.050;14.608;2023-09-19T08:03:07;19.50;99.90
4566;DHT22;2295;51.050;14.608;2023-09-19T08:05:44;19.50;99.90
4566;DHT22;2295;51.050;14.608;2023-09-19T08:08:13;19.30;99.90
4566;DHT22;2295;51.050;14.608;2023-09-19T08:10:42;19.20;99.90
4566;DHT22;2295;51.050;14.608;2023-09-19T08:13:14;19.60;99.90
4566;DHT22;2295;51.050;14.608;2023-09-19T08:15:44;20.20;99.90
4566;DHT22;2295;51.050;14.608;2023-09-19T08:18:16;20.70;99.90
4566;DHT22;2295;51.050;14.608;2023-09-19T08:20:49;20.90;99.90
4566;DHT22;2295;51.050;14.608;2023-09-19T08:23:18;21.00;99.90
4566;DHT22;2295;51.050;14.608;2023-09-19T08:25:47;21.40;99.90
4566;DHT22;2295;51.050;14.608;2023-09-19T08:28:15;22.20;99.90
4566;DHT22;2295;51.050;14.608;2023-09-19T08:30:46;22.50;99.90
4566;DHT22;2295;51.050;14.608;2023-09-19T08:33:15;22.50;99.90
4566;DHT22;2295;51.050;14.608;2023-09-19T08:35:44;22.40;99.90
4566;DHT22;2295;51.050;14.608;2023-09-19T08:38:13;22.50;99.90
4566;DHT22;2295;51.050;14.608;2023-09-19T08:40:41;23.00;99.90
4566;DHT22;2295;51.050;14.608;2023-09-19T08:43:10;23.30;99.90
4566;DHT22;2295;51.050;14.608;2023-09-19T08:45:39;22.80;99.90
4566;DHT22;2295;51.050;14.608;2023-09-19T08:48:20;22.70;99.90
4566;DHT22;2295;51.050;14.608;2023-09-19T08:50:52;22.70;99.90
4566;DHT22;2295;51.050;14.608;2023-09-19T08:53:30;22.60;99.90
4566;DHT22;2295;51.050;14.608;2023-09-19T08:56:00;22.70;99.90
4566;DHT22;2295;51.050;14.608;2023-09-19T08:58:37;23.10;99.90
4566;DHT22;2295;51.050;14.608;2023-09-19T09:01:08;23.20;99.90
4566;DHT22;2295;51.050;14.608;2023-09-19T09:03:40;22.70;99.90
4566;DHT22;2295;51.050;14.608;2023-09-19T09:06:16;22.70;99.90
4566;DHT22;2295;51.050;14.608;2023-09-19T09:08:46;23.00;99.90
4566;DHT22;2295;51.050;14.608;2023-09-19T09:11:15;23.80;99.80
4566;DHT22;2295;51.050;14.608;2023-09-19T09:13:44;24.80;97.80
4566;DHT22;2295;51.050;14.608;2023-09-19T09:16:13;25.40;95.30
4566;DHT22;2295;51.050;14.608;2023-09-19T09:18:47;24.90;94.60
4566;DHT22;2295;51.050;14.608;2023-09-19T09:21:20;24.60;94.90
4566;DHT22;2295;51.050;14.608;2023-09-19T09:23:49;23.60;95.60
4566;DHT22;2295;51.050;14.608;2023-09-19T09:26:42;22.50;97.30
4566;DHT22;2295;51.050;14.608;2023-09-19T09:29:11;21.50;99.30
4566;DHT22;2295;51.050;14.608;2023-09-19T09:31:43;21.20;99.30
4566;DHT22;2295;51.050;14.608;2023-09-19T09:34:13;21.20;99.30
4566;DHT22;2295;51.050;14.608;2023-09-19T09:36:48;21.20;99.50
4566;DHT22;2295;51.050;14.608;2023-09-19T09:39:30;21.30;99.90
4566;DHT22;2295;51.050;14.608;2023-09-19T09:41:59;21.70;99.90
4566;DHT22;2295;51.050;14.608;2023-09-19T09:44:27;22.60;98.20
4566;DHT22;2295;51.050;14.608;2023-09-19T09:46:59;23.40;97.90
4566;DHT22;2295;51.050;14.608;2023-09-19T09:49:50;23.30;95.30
4566;DHT22;2295;51.050;14.608;2023-09-19T09:52:45;23.40;97.10
4566;DHT22;2295;51.050;14.608;2023-09-19T09:55:14;23.90;94.90
4566;DHT22;2295;51.050;14.608;2023-09-19T09:57:43;23.20;96.30
4566;DHT22;2295;51.050;14.608;2023-09-19T10:00:12;23.10;97.30
4566;DHT22;2295;51.050;14.608;2023-09-19T10:02:47;23.70;98.90
4566;DHT22;2295;51.050;14.608;2023-09-19T10:05:18;24.70;94.60
4566;DHT22;2295;51.050;14.608;2023-09-19T10:08:10;25.20;94.40
4566;DHT22;2295;51.050;14.608;2023-09-19T10:10:40;25.90;92.70
4566;DHT22;2295;51.050;14.608;2023-09-19T10:13:21;26.10;90.40
4566;DHT22;2295;51.050;14.608;2023-09-19T10:15:51;26.20;91.40
4566;DHT22;2295;51.050;14.608;2023-09-19T10:18:24;26.50;90.90
4566;DHT22;2295;51.050;14.608;2023-09-19T10:20:56;26.70;91.60
4566;DHT22;2295;51.050;14.608;2023-09-19T10:23:25;26.10;88.90
4566;DHT22;2295;51.050;14.608;2023-09-19T10:25:57;24.50;92.40
4566;DHT22;2295;51.050;14.608;2023-09-19T10:28:30;23.10;93.30
4566;DHT22;2295;51.050;14.608;2023-09-19T10:31:00;22.20;97.00
4566;DHT22;2295;51.050;14.608;2023-09-19T10:33:35;21.60;96.70
4566;DHT22;2295;51.050;14.608;2023-09-19T10:36:06;21.30;97.80
4566;DHT22;2295;51.050;14.608;2023-09-19T10:38:38;21.40;98.20
4566;DHT22;2295;51.050;14.608;2023-09-19T10:41:09;22.60;95.70
4566;DHT22;2295;51.050;14.608;2023-09-19T10:43:39;23.90;95.50
4566;DHT22;2295;51.050;14.608;2023-09-19T10:46:12;25.20;93.90
4566;DHT22;2295;51.050;14.608;2023-09-19T10:48:41;26.50;91.60
4566;DHT22;2295;51.050;14.608;2023-09-19T10:51:15;27.00;85.40
4566;DHT22;2295;51.050;14.608;2023-09-19T10:53:48;26.90;85.80
4566;DHT22;2295;51.050;14.608;2023-09-19T10:56:23;26.80;82.50
4566;DHT22;2295;51.050;14.608;2023-09-19T10:59:06;26.70;86.10
4566;DHT22;2295;51.050;14.608;2023-09-19T11:01:43;26.30;82.40
4566;DHT22;2295;51.050;14.608;2023-09-19T11:04:24;25.30;86.90
4566;DHT22;2295;51.050;14.608;2023-09-19T11:07:06;24.10;90.00
4566;DHT22;2295;51.050;14.608;2023-09-19T11:09:47;23.60;94.20
4566;DHT22;2295;51.050;14.608;2023-09-19T11:16:03;24.70;91.50
4566;DHT22;2295;51.050;14.608;2023-09-19T11:18:53;24.20;91.50
4566;DHT22;2295;51.050;14.608;2023-09-19T11:21:53;23.30;92.60
4566;DHT22;2295;51.050;14.608;2023-09-19T11:24:31;23.00;93.50
4566;DHT22;2295;51.050;14.608;2023-09-19T11:27:15;23.60;92.90
4566;DHT22;2295;51.050;14.608;2023-09-19T11:29:45;24.20;90.80
4566;DHT22;2295;51.050;14.608;2023-09-19T11:32:14;24.10;91.80
4566;DHT22;2295;51.050;14.608;2023-09-19T11:34:48;23.90;91.60
4566;DHT22;2295;51.050;14.608;2023-09-19T11:40:36;23.20;92.50
4566;DHT22;2295;51.050;14.608;2023-09-19T11:43:28;23.20;94.70
4566;DHT22;2295;51.050;14.608;2023-09-19T11:46:07;24.30;91.50
4566;DHT22;2295;51.050;14.608;2023-09-19T11:48:38;24.90;91.30
4566;DHT22;2295;51.050;14.608;2023-09-19T11:51:13;25.00;87.90
4566;DHT22;2295;51.050;14.608;2023-09-19T11:53:47;24.70;88.80
4566;DHT22;2295;51.050;14.608;2023-09-19T11:56:19;24.80;87.00
4566;DHT22;2295;51.050;14.608;2023-09-19T11:58:50;25.40;88.60
4566;DHT22;2295;51.050;14.608;2023-09-19T12:01:25;25.70;88.70
4566;DHT22;2295;51.050;14.608;2023-09-19T12:03:57;25.90;87.10
4566;DHT22;2295;51.050;14.608;2023-09-19T12:06:27;25.00;85.70
4566;DHT22;2295;51.050;14.608;2023-09-19T12:08:56;24.10;87.80
4566;DHT22;2295;51.050;14.608;2023-09-19T12:11:30;23.40;91.50
4566;DHT22;2295;51.050;14.608;2023-09-19T12:14:01;23.20;91.50
4566;DHT22;2295;51.050;14.608;2023-09-19T12:16:31;23.10;91.80
4566;DHT22;2295;51.050;14.608;2023-09-19T12:19:19;23.20;93.30
4566;DHT22;2295;51.050;14.608;2023-09-19T12:21:56;22.80;92.80
4566;DHT22;2295;51.050;14.608;2023-09-19T12:24:27;22.60;93.60
4566;DHT22;2295;51.050;14.608;2023-09-19T12:27:02;22.90;94.80
4566;DHT22;2295;51.050;14.608;2023-09-19T12:29:42;23.20;93.30
4566;DHT22;2295;51.050;14.608;2023-09-19T12:32:11;23.30;93.80
4566;DHT22;2295;51.050;14.608;2023-09-19T12:34:40;23.40;92.80
4566;DHT22;2295;51.050;14.608;2023-09-19T12:37:11;23.40;91.20
4566;DHT22;2295;51.050;14.608;2023-09-19T12:39:43;23.20;92.90
4566;DHT22;2295;51.050;14.608;2023-09-19T12:42:18;23.30;91.40
4566;DHT22;2295;51.050;14.608;2023-09-19T12:44:49;23.20;92.30
4566;DHT22;2295;51.050;14.608;2023-09-19T12:47:22;23.20;91.70
4566;DHT22;2295;51.050;14.608;2023-09-19T12:50:11;22.90;92.00
4566;DHT22;2295;51.050;14.608;2023-09-19T12:52:45;22.70;91.60
4566;DHT22;2295;51.050;14.608;2023-09-19T12:55:23;22.60;93.10
4566;DHT22;2295;51.050;14.608;2023-09-19T12:58:11;22.60;91.40
4566;DHT22;2295;51.050;14.608;2023-09-19T13:00:43;22.50;94.20
4566;DHT22;2295;51.050;14.608;2023-09-19T13:03:16;22.70;95.00
4566;DHT22;2295;51.050;14.608;2023-09-19T13:05:51;23.00;92.10
4566;DHT22;2295;51.050;14.608;2023-09-19T13:08:25;23.10;92.70
4566;DHT22;2295;51.050;14.608;2023-09-19T13:11:10;23.30;92.00
4566;DHT22;2295;51.050;14.608;2023-09-19T13:13:45;23.30;88.20
4566;DHT22;2295;51.050;14.608;2023-09-19T13:16:17;23.20;90.70
4566;DHT22;2295;51.050;14.608;2023-09-19T13:18:50;23.20;91.30
4566;DHT22;2295;51.050;14.608;2023-09-19T13:21:28;23.20;90.50
4566;DHT22;2295;51.050;14.608;2023-09-19T13:24:18;23.20;88.10
4566;DHT22;2295;51.050;14.608;2023-09-19T13:26:47;22.90;89.70
4566;DHT22;2295;51.050;14.608;2023-09-19T13:29:26;22.70;89.50
4566;DHT22;2295;51.050;14.608;2023-09-19T13:31:54;22.70;91.10
4566;DHT22;2295;51.050;14.608;2023-09-19T13:34:22;22.60;89.30
4566;DHT22;2295;51.050;14.608;2023-09-19T13:36:51;22.60;88.00
4566;DHT22;2295;51.050;14.608;2023-09-19T13:39:20;22.50;88.00
4566;DHT22;2295;51.050;14.608;2023-09-19T13:41:51;22.40;91.60
4566;DHT22;2295;51.050;14.608;2023-09-19T13:44:20;22.20;91.90
4566;DHT22;2295;51.050;14.608;2023-09-19T13:46:49;22.20;90.60
4566;DHT22;2295;51.050;14.608;2023-09-19T13:49:18;22.10;88.80
4566;DHT22;2295;51.050;14.608;2023-09-19T13:51:49;22.00;90.30
4566;DHT22;2295;51.050;14.608;2023-09-19T13:54:17;21.90;90.00
4566;DHT22;2295;51.050;14.608;2023-09-19T13:56:47;21.90;90.50
4566;DHT22;2295;51.050;14.608;2023-09-19T13:59:16;21.90;91.00
4566;DHT22;2295;51.050;14.608;2023-09-19T14:01:44;21.90;90.40
4566;DHT22;2295;51.050;14.608;2023-09-19T14:04:14;21.70;90.00
4566;DHT22;2295;51.050;14.608;2023-09-19T14:06:43;21.60;88.80
4566;DHT22;2295;51.050;14.608;2023-09-19T14:09:12;21.60;87.90
4566;DHT22;2295;51.050;14.608;2023-09-19T14:11:40;21.60;89.00
4566;DHT22;2295;51.050;14.608;2023-09-19T14:14:13;21.60;85.80
4566;DHT22;2295;51.050;14.608;2023-09-19T14:16:42;21.70;90.10
4566;DHT22;2295;51.050;14.608;2023-09-19T14:19:10;21.60;90.50
4566;DHT22;2295;51.050;14.608;2023-09-19T14:21:42;21.70;86.60
4566;DHT22;2295;51.050;14.608;2023-09-19T14:24:10;21.70;87.20
4566;DHT22;2295;51.050;14.608;2023-09-19T14:26:39;21.60;85.90
4566;DHT22;2295;51.050;14.608;2023-09-19T14:29:10;21.60;89.40
4566;DHT22;2295;51.050;14.608;2023-09-19T14:31:40;21.60;89.00
4566;DHT22;2295;51.050;14.608;2023-09-19T14:34:08;21.70;87.90
4566;DHT22;2295;51.050;14.608;2023-09-19T14:36:37;21.70;89.50
4566;DHT22;2295;51.050;14.608;2023-09-19T14:39:08;21.70;89.40
4566;DHT22;2295;51.050;14.608;2023-09-19T14:41:36;21.50;90.50
4566;DHT22;2295;51.050;14.608;2023-09-19T14:44:04;21.40;90.10
4566;DHT22;2295;51.050;14.608;2023-09-19T14:46:35;21.20;89.10
4566;DHT22;2295;51.050;14.608;2023-09-19T14:49:03;21.20;90.80
4566;DHT22;2295;51.050;14.608;2023-09-19T14:51:33;21.20;92.50
4566;DHT22;2295;51.050;14.608;2023-09-19T14:54:03;21.30;91.40
4566;DHT22;2295;51.050;14.608;2023-09-19T14:56:33;21.40;91.30
4566;DHT22;2295;51.050;14.608;2023-09-19T14:59:01;21.50;91.10
4566;DHT22;2295;51.050;14.608;2023-09-19T15:01:30;21.60;90.80
4566;DHT22;2295;51.050;14.608;2023-09-19T15:03:59;21.70;91.50
4566;DHT22;2295;51.050;14.608;2023-09-19T15:06:28;21.70;91.30
4566;DHT22;2295;51.050;14.608;2023-09-19T15:08:57;21.80;92.40
4566;DHT22;2295;51.050;14.608;2023-09-19T15:11:28;21.70;90.10
4566;DHT22;2295;51.050;14.608;2023-09-19T15:13:57;21.40;91.30
4566;DHT22;2295;51.050;14.608;2023-09-19T15:16:26;21.20;92.30
4566;DHT22;2295;51.050;14.608;2023-09-19T15:18:55;21.10;91.20
4566;DHT22;2295;51.050;14.608;2023-09-19T15:21:23;21.00;91.20
4566;DHT22;2295;51.050;14.608;2023-09-19T15:23:51;21.00;90.20
4566;DHT22;2295;51.050;14.608;2023-09-19T15:26:20;20.90;88.40
4566;DHT22;2295;51.050;14.608;2023-09-19T15:28:51;20.90;91.30
4566;DHT22;2295;51.050;14.608;2023-09-19T15:31:22;20.70;90.10
4566;DHT22;2295;51.050;14.608;2023-09-19T15:33:51;20.70;91.70
4566;DHT22;2295;51.050;14.608;2023-09-19T15:36:22;20.60;92.30
4566;DHT22;2295;51.050;14.608;2023-09-19T15:38:58;20.70;90.70
4566;DHT22;2295;51.050;14.608;2023-09-19T15:41:29;20.60;91.00
4566;DHT22;2295;51.050;14.608;2023-09-19T15:43:59;20.50;90.70
4566;DHT22;2295;51.050;14.608;2023-09-19T15:46:31;20.30;90.90
4566;DHT22;2295;51.050;14.608;2023-09-19T15:49:00;20.20;90.60
4566;DHT22;2295;51.050;14.608;2023-09-19T15:51:29;20.10;91.20
4566;DHT22;2295;51.050;14.608;2023-09-19T15:54:00;20.00;90.30
4566;DHT22;2295;51.050;14.608;2023-09-19T15:56:29;19.90;90.40
4566;DHT22;2295;51.050;14.608;2023-09-19T15:58:57;19.90;91.20
4566;DHT22;2295;51.050;14.608;2023-09-19T16:01:30;19.80;92.50
4566;DHT22;2295;51.050;14.608;2023-09-19T16:03:59;19.70;92.20
4566;DHT22;2295;51.050;14.608;2023-09-19T16:06:28;19.60;92.10
4566;DHT22;2295;51.050;14.608;2023-09-19T16:08:59;19.50;91.50
4566;DHT22;2295;51.050;14.608;2023-09-19T16:11:33;19.40;93.60
4566;DHT22;2295;51.050;14.608;2023-09-19T16:14:06;19.40;92.60
4566;DHT22;2295;51.050;14.608;2023-09-19T16:16:38;19.30;91.90
4566;DHT22;2295;51.050;14.608;2023-09-19T16:19:06;19.20;94.00
4566;DHT22;2295;51.050;14.608;2023-09-19T16:21:38;19.10;94.40